sensor_id;sensor_type;location;lat;lon;timestamp;temperature;humidity
24207;DHT22;12351;52.284;9.160;2024-03-08T00:02:21;2.50;99.90
24207;DHT22;12351;52.284;9.160;2024-03-08T00:05:08;2.50;99.90
24207;DHT22;12351;52.284;9.160;2024-03-08T00:07:55;2.50;99.90
24207;DHT22;12351;52.284;9.160;2024-03-08T00:10:42;2.50;99.90
24207;DHT22;12351;52.284;9.160;2024-03-08T00:13:30;2.40;99.90
24207;DHT22;12351;52.284;9.160;2024-03-08T00:16:16;2.40;99.90
24207;DHT22;12351;52.284;9.160;2024-03-08T00:19:05;2.40;99.90
24207;DHT22;12351;52.284;9.160;2024-03-08T00:21:52;2.40;99.90
24207;DHT22;12351;52.284;9.160;2024-03-08T00:24:39;2.40;99.90
24207;DHT22;12351;52.284;9.160;2024-03-08T00:27:25;2.40;99.90
24207;DHT22;12351;52.284;9.160;2024-03-08T00:30:12;2.40;99.90
24207;DHT22;12351;52.284;9.160;2024-03-08T00:32:58;2.30;99.90
24207;DHT22;12351;52.284;9.160;2024-03-08T00:35:45;2.30;99.90
24207;DHT22;12351;52.284;9.160;2024-03-08T00:38:33;2.30;99.90
24207;DHT22;12351;52.284;9.160;2024-03-08T00:41:19;2.30;99.90
24207;DHT22;12351;52.284;9.160;2024-03-08T00:44:06;2.30;99.90
24207;DHT22;12351;52.284;9.160;2024-03-08T00:46:54;2.30;99.90
24207;DHT22;12351;52.284;9.160;2024-03-08T00:49:42;2.20;99.90
24207;DHT22;12351;52.284;9.160;2024-03-08T00:52:28;2.20;99.90
24207;DHT22;12351;52.284;9.160;2024-03-08T00:55:16;2.20;99.90
24207;DHT22;12351;52.284;9.160;2024-03-08T00:58:04;2.20;99.90
24207;DHT22;12351;52.284;9.160;2024-03-08T01:00:51;2.20;99.90
24207;DHT22;12351;52.284;9.160;2024-03-08T01:03:38;2.10;99.90
24207;DHT22;12351;52.284;9.160;2024-03-08T01:06:24;2.10;99.90
24207;DHT22;12351;52.284;9.160;2024-03-08T01:09:13;2.10;99.90
24207;DHT22;12351;52.284;9.160;2024-03-08T01:12:01;2.10;99.90
24207;DHT22;12351;52.284;9.160;2024-03-08T01:14:47;2.10;99.90
24207;DHT22;12351;52.284;9.160;2024-03-08T01:17:36;2.10;99.90
24207;DHT22;12351;52.284;9.160;2024-03-08T01:20:22;2.00;99.90
24207;DHT22;12351;52.284;9.160;2024-03-08T01:23:10;2.00;99.90
24207;DHT22;12351;52.284;9.160;2024-03-08T01:25:56;2.00;99.90
24207;DHT22;12351;52.284;9.160;2024-03-08T01:28:44;2.00;99.90
24207;DHT22;12351;52.284;9.160;2024-03-08T01:31:31;2.00;99.90
24207;DHT22;12351;52.284;9.160;2024-03-08T01:34:17;1.90;99.90
24207;DHT22;12351;52.284;9.160;2024-03-08T01:37:05;1.90;99.90
24207;DHT22;12351;52.284;9.160;2024-03-08T01:39:53;1.90;99.90
24207;DHT22;12351;52.284;9.160;2024-03-08T01:42:40;1.90;99.90
24207;DHT22;12351;52.284;9.160;2024-03-08T01:45:29;1.80;99.90
24207;DHT22;12351;52.284;9.160;2024-03-08T01:48:17;1.80;99.90
24207;DHT22;12351;52.284;9.160;2024-03-08T01:51:04;1.80;99.90
24207;DHT22;12351;52.284;9.160;2024-03-08T01:53:53;1.80;99.90
24207;DHT22;12351;52.284;9.160;2024-03-08T01:56:42;1.80;99.90
24207;DHT22;12351;52.284;9.160;2024-03-08T01:59:29;1.80;99.90
24207;DHT22;12351;52.284;9.160;2024-03-08T02:02:17;1.70;99.90
24207;DHT22;12351;52.284;9.160;2024-03-08T02:05:05;1.70;99.90
24207;DHT22;12351;52.284;9.160;2024-03-08T02:07:53;1.70;99.90
24207;DHT22;12351;52.284;9.160;2024-03-08T02:10:42;1.70;99.90
24207;DHT22;12351;52.284;9.160;2024-03-08T02:13:29;1.70;99.90
24207;DHT22;12351;52.284;9.160;2024-03-08T02:16:20;1.70;99.90
24207;DHT22;12351;52.284;9.160;2024-03-08T02:19:06;1.70;99.90
24207;DHT22;12351;52.284;9.160;2024-03-08T02:21:56;1.70;99.90
24207;DHT22;12351;52.284;9.160;2024-03-08T02:24:43;1.60;99.90
24207;DHT22;12351;52.284;9.160;2024-03-08T02:27:30;1.60;99.90
24207;DHT22;12351;52.284;9.160;2024-03-08T02:30:19;1.60;99.90
24207;DHT22;12351;52.284;9.160;2024-03-08T02:33:07;1.50;99.90
24207;DHT22;12351;52.284;9.160;2024-03-08T02:35:55;1.50;99.90
24207;DHT22;12351;52.284;9.160;2024-03-08T02:38:41;1.50;99.90
24207;DHT22;12351;52.284;9.160;2024-03-08T02:41:29;1.50;99.90
24207;DHT22;12351;52.284;9.160;2024-03-08T02:44:16;1.50;99.90
24207;DHT22;12351;52.284;9.160;2024-03-08T02:47:03;1.50;99.90
24207;DHT22;12351;52.284;9.160;2024-03-08T02:49:51;1.40;99.90
24207;DHT22;12351;52.284;9.160;2024-03-08T02:52:37;1.40;99.90
24207;DHT22;12351;52.284;9.160;2024-03-08T02:55:24;1.40;99.90
24207;DHT22;12351;52.284;9.160;2024-03-08T02:58:13;1.40;99.90
24207;DHT22;12351;52.284;9.160;2024-03-08T03:01:01;1.30;99.90
24207;DHT22;12351;52.284;9.160;2024-03-08T03:03:50;1.30;99.90
24207;DHT22;12351;52.284;9.160;2024-03-08T03:06:36;1.30;99.90
24207;DHT22;12351;52.284;9.160;2024-03-08T03:09:24;1.30;99.90
24207;DHT22;12351;52.284;9.160;2024-03-08T03:12:11;1.30;99.90
24207;DHT22;12351;52.284;9.160;2024-03-08T03:14:59;1.20;99.90
24207;DHT22;12351;52.284;9.160;2024-03-08T03:17:47;1.20;99.90
24207;DHT22;12351;52.284;9.160;2024-03-08T03:20:33;1.20;99.90
24207;DHT22;12351;52.284;9.160;2024-03-08T03:23:21;1.10;99.90
24207;DHT22;12351;52.284;9.160;2024-03-08T03:26:10;1.10;99.90
24207;DHT22;12351;52.284;9.160;2024-03-08T03:28:58;1.10;99.90
24207;DHT22;12351;52.284;9.160;2024-03-08T03:31:46;1.10;99.90
24207;DHT22;12351;52.284;9.160;2024-03-08T03:34:35;1.10;99.90
24207;DHT22;12351;52.284;9.160;2024-03-08T03:37:22;1.00;99.90
24207;DHT22;12351;52.284;9.160;2024-03-08T03:40:09;1.00;99.90
24207;DHT22;12351;52.284;9.160;2024-03-08T03:42:56;1.00;99.90
24207;DHT22;12351;52.284;9.160;2024-03-08T03:45:44;0.90;99.90
24207;DHT22;12351;52.284;9.160;2024-03-08T03:48:32;0.90;99.90
24207;DHT22;12351;52.284;9.160;2024-03-08T03:54:09;0.90;99.90
24207;DHT22;12351;52.284;9.160;2024-03-08T03:56:55;0.90;99.90
24207;DHT22;12351;52.284;9.160;2024-03-08T03:59:42;0.90;99.90
24207;DHT22;12351;52.284;9.160;2024-03-08T04:02:28;0.80;99.90
24207;DHT22;12351;52.284;9.160;2024-03-08T04:05:16;0.80;99.90
24207;DHT22;12351;52.284;9.160;2024-03-08T04:08:02;0.80;99.90
24207;DHT22;12351;52.284;9.160;2024-03-08T04:10:49;0.80;99.90
24207;DHT22;12351;52.284;9.160;2024-03-08T04:13:38;0.70;99.90
24207;DHT22;12351;52.284;9.160;2024-03-08T04:16:23;0.70;99.90
24207;DHT22;12351;52.284;9.160;2024-03-08T04:19:12;0.70;99.90
24207;DHT22;12351;52.284;9.160;2024-03-08T04:21:59;0.60;99.90
24207;DHT22;12351;52.284;9.160;2024-03-08T04:24:46;0.70;99.90
24207;DHT22;12351;52.284;9.160;2024-03-08T04:27:33;0.70;99.90
24207;DHT22;12351;52.284;9.160;2024-03-08T04:30:20;0.70;99.90
24207;DHT22;12351;52.284;9.160;2024-03-08T04:33:08;0.70;99.90
24207;DHT22;12351;52.284;9.160;2024-03-08T04:35:54;0.70;99.90
24207;DHT22;12351;52.284;9.160;2024-03-08T04:38:42;0.70;99.90
24207;DHT22;12351;52.284;9.160;2024-03-08T04:41:30;0.60;99.90
24207;DHT22;12351;52.284;9.160;2024-03-08T04:44:16;0.60;99.90
24207;DHT22;12351;52.284;9.160;2024-03-08T04:47:04;0.50;99.90
24207;DHT22;12351;52.284;9.160;2024-03-08T04:49:51;0.50;99.90
24207;DHT22;12351;52.284;9.160;2024-03-08T04:52:38;0.60;99.90
24207;DHT22;12351;52.284;9.160;2024-03-08T04:55:24;0.50;99.90
24207;DHT22;12351;52.284;9.160;2024-03-08T04:58:12;0.50;99.90
24207;DHT22;12351;52.284;9.160;2024-03-08T05:01:00;0.40;99.90
24207;DHT22;12351;52.284;9.160;2024-03-08T05:03:47;0.40;99.90
24207;DHT22;12351;52.284;9.160;2024-03-08T05:06:36;0.40;99.90
24207;DHT22;12351;52.284;9.160;2024-03-08T05:09:22;0.40;99.90
24207;DHT22;12351;52.284;9.160;2024-03-08T05:12:10;0.50;99.90
24207;DHT22;12351;52.284;9.160;2024-03-08T05:14:57;0.40;99.90
24207;DHT22;12351;52.284;9.160;2024-03-08T05:17:44;0.40;99.90
24207;DHT22;12351;52.284;9.160;2024-03-08T05:20:31;0.40;99.90
24207;DHT22;12351;52.284;9.160;2024-03-08T05:23:17;0.40;99.90
24207;DHT22;12351;52.284;9.160;2024-03-08T05:26:05;0.40;99.90
24207;DHT22;12351;52.284;9.160;2024-03-08T05:28:53;0.40;99.90
24207;DHT22;12351;52.284;9.160;2024-03-08T05:31:43;0.40;99.90
24207;DHT22;12351;52.284;9.160;2024-03-08T05:34:29;0.40;99.90
24207;DHT22;12351;52.284;9.160;2024-03-08T05:37:16;0.40;99.90
24207;DHT22;12351;52.284;9.160;2024-03-08T05:40:07;0.50;99.90
24207;DHT22;12351;52.284;9.160;2024-03-08T05:42:54;0.40;99.90
24207;DHT22;12351;52.284;9.160;2024-03-08T05:45:41;0.50;99.90
24207;DHT22;12351;52.284;9.160;2024-03-08T05:48:28;0.50;99.90
24207;DHT22;12351;52.284;9.160;2024-03-08T05:51:18;0.50;99.90
24207;DHT22;12351;52.284;9.160;2024-03-08T05:54:10;0.50;99.90
24207;DHT22;12351;52.284;9.160;2024-03-08T05:56:55;0.50;99.90
24207;DHT22;12351;52.284;9.160;2024-03-08T05:59:42;0.50;99.90
24207;DHT22;12351;52.284;9.160;2024-03-08T06:02:32;0.50;99.90
24207;DHT22;12351;52.284;9.160;2024-03-08T06:05:19;0.50;99.90
24207;DHT22;12351;52.284;9.160;2024-03-08T06:08:05;0.50;99.90
24207;DHT22;12351;52.284;9.160;2024-03-08T06:10:53;0.50;99.90
24207;DHT22;12351;52.284;9.160;2024-03-08T06:13:40;0.50;99.90
24207;DHT22;12351;52.284;9.160;2024-03-08T06:16:30;0.50;99.90
24207;DHT22;12351;52.284;9.160;2024-03-08T06:19:18;0.50;99.90
24207;DHT22;12351;52.284;9.160;2024-03-08T06:22:04;0.50;99.90
24207;DHT22;12351;52.284;9.160;2024-03-08T06:24:51;0.50;99.90
24207;DHT22;12351;52.284;9.160;2024-03-08T06:27:41;0.50;99.90
24207;DHT22;12351;52.284;9.160;2024-03-08T06:30:28;0.50;99.90
24207;DHT22;12351;52.284;9.160;2024-03-08T06:33:16;0.50;99.90
24207;DHT22;12351;52.284;9.160;2024-03-08T06:36:02;0.50;99.90
24207;DHT22;12351;52.284;9.160;2024-03-08T06:38:49;0.50;99.90
24207;DHT22;12351;52.284;9.160;2024-03-08T06:41:36;0.50;99.90
24207;DHT22;12351;52.284;9.160;2024-03-08T06:44:24;0.50;99.90
24207;DHT22;12351;52.284;9.160;2024-03-08T06:47:11;0.50;99.90
24207;DHT22;12351;52.284;9.160;2024-03-08T06:49:58;0.50;99.90
24207;DHT22;12351;52.284;9.160;2024-03-08T06:52:45;0.50;99.90
24207;DHT22;12351;52.284;9.160;2024-03-08T06:55:32;0.50;99.90
24207;DHT22;12351;52.284;9.160;2024-03-08T06:58:19;0.50;99.90
24207;DHT22;12351;52.284;9.160;2024-03-08T07:01:05;0.50;99.90
24207;DHT22;12351;52.284;9.160;2024-03-08T07:03:52;0.50;99.90
24207;DHT22;12351;52.284;9.160;2024-03-08T07:06:40;0.50;99.90
24207;DHT22;12351;52.284;9.160;2024-03-08T07:09:31;0.50;99.90
24207;DHT22;12351;52.284;9.160;2024-03-08T07:12:18;0.50;99.90
24207;DHT22;12351;52.284;9.160;2024-03-08T07:15:06;0.50;99.90
24207;DHT22;12351;52.284;9.160;2024-03-08T07:17:54;0.50;99.90
24207;DHT22;12351;52.284;9.160;2024-03-08T07:20:41;0.50;99.90
24207;DHT22;12351;52.284;9.160;2024-03-08T07:23:29;0.50;99.90
24207;DHT22;12351;52.284;9.160;2024-03-08T07:26:17;0.60;99.90
24207;DHT22;12351;52.284;9.160;2024-03-08T07:29:05;0.50;99.90
24207;DHT22;12351;52.284;9.160;2024-03-08T07:31:53;0.60;99.90
24207;DHT22;12351;52.284;9.160;2024-03-08T07:34:42;0.60;99.90
24207;DHT22;12351;52.284;9.160;2024-03-08T07:37:28;0.70;99.90
24207;DHT22;12351;52.284;9.160;2024-03-08T07:40:16;0.60;99.90
24207;DHT22;12351;52.284;9.160;2024-03-08T07:43:04;0.60;99.90
24207;DHT22;12351;52.284;9.160;2024-03-08T07:45:51;0.60;99.90
24207;DHT22;12351;52.284;9.160;2024-03-08T07:48:39;0.70;99.90
24207;DHT22;12351;52.284;9.160;2024-03-08T07:51:27;0.70;99.90
24207;DHT22;12351;52.284;9.160;2024-03-08T07:54:14;0.80;99.90
24207;DHT22;12351;52.284;9.160;2024-03-08T07:57:00;0.80;99.90
24207;DHT22;12351;52.284;9.160;2024-03-08T07:59:49;0.80;99.90
24207;DHT22;12351;52.284;9.160;2024-03-08T08:02:37;0.90;99.90
24207;DHT22;12351;52.284;9.160;2024-03-08T08:05:24;1.00;99.90
24207;DHT22;12351;52.284;9.160;2024-03-08T08:08:11;1.10;99.90
24207;DHT22;12351;52.284;9.160;2024-03-08T08:10:59;1.30;99.90
24207;DHT22;12351;52.284;9.160;2024-03-08T08:13:47;1.40;99.90
24207;DHT22;12351;52.284;9.160;2024-03-08T08:16:34;1.50;99.90
24207;DHT22;12351;52.284;9.160;2024-03-08T08:19:22;1.60;99.90
24207;DHT22;12351;52.284;9.160;2024-03-08T08:22:08;1.60;99.90
24207;DHT22;12351;52.284;9.160;2024-03-08T08:24:55;1.80;99.90
24207;DHT22;12351;52.284;9.160;2024-03-08T08:27:42;1.90;99.90
24207;DHT22;12351;52.284;9.160;2024-03-08T08:30:28;1.90;99.90
24207;DHT22;12351;52.284;9.160;2024-03-08T08:33:15;2.00;99.90
24207;DHT22;12351;52.284;9.160;2024-03-08T08:36:02;2.00;99.90
24207;DHT22;12351;52.284;9.160;2024-03-08T08:38:49;2.10;99.90
24207;DHT22;12351;52.284;9.160;2024-03-08T08:41:36;2.30;99.90
24207;DHT22;12351;52.284;9.160;2024-03-08T08:44:23;2.30;99.90
24207;DHT22;12351;52.284;9.160;2024-03-08T08:47:11;2.40;99.90
24207;DHT22;12351;52.284;9.160;2024-03-08T08:49:59;2.50;99.90
24207;DHT22;12351;52.284;9.160;2024-03-08T08:52:46;2.50;99.90
24207;DHT22;12351;52.284;9.160;2024-03-08T08:55:33;2.70;99.90
24207;DHT22;12351;52.284;9.160;2024-03-08T08:58:22;2.80;99.90
24207;DHT22;12351;52.284;9.160;2024-03-08T09:01:11;2.80;99.90
24207;DHT22;12351;52.284;9.160;2024-03-08T09:03:58;2.90;99.90
24207;DHT22;12351;52.284;9.160;2024-03-08T09:06:45;3.00;99.90
24207;DHT22;12351;52.284;9.160;2024-03-08T09:09:33;3.10;99.90
24207;DHT22;12351;52.284;9.160;2024-03-08T09:12:23;3.10;99.90
24207;DHT22;12351;52.284;9.160;2024-03-08T09:15:11;3.20;99.90
24207;DHT22;12351;52.284;9.160;2024-03-08T09:17:57;3.40;99.90
24207;DHT22;12351;52.284;9.160;2024-03-08T09:20:45;3.40;99.90
24207;DHT22;12351;52.284;9.160;2024-03-08T09:23:32;3.50;99.90
24207;DHT22;12351;52.284;9.160;2024-03-08T09:26:20;3.60;99.90
24207;DHT22;12351;52.284;9.160;2024-03-08T09:29:08;3.60;99.90
24207;DHT22;12351;52.284;9.160;2024-03-08T09:31:56;3.60;99.90
24207;DHT22;12351;52.284;9.160;2024-03-08T09:34:44;3.70;99.90
24207;DHT22;12351;52.284;9.160;2024-03-08T09:37:31;3.80;99.90
24207;DHT22;12351;52.284;9.160;2024-03-08T09:40:19;3.90;99.90
24207;DHT22;12351;52.284;9.160;2024-03-08T09:43:05;3.90;99.90
24207;DHT22;12351;52.284;9.160;2024-03-08T09:45:52;4.00;99.90
24207;DHT22;12351;52.284;9.160;2024-03-08T09:48:40;4.10;99.90
24207;DHT22;12351;52.284;9.160;2024-03-08T09:51:29;4.10;99.90
24207;DHT22;12351;52.284;9.160;2024-03-08T09:54:18;4.20;99.90
24207;DHT22;12351;52.284;9.160;2024-03-08T09:57:06;4.20;99.90
24207;DHT22;12351;52.284;9.160;2024-03-08T09:59:54;4.30;99.90
24207;DHT22;12351;52.284;9.160;2024-03-08T10:02:41;4.40;99.90
24207;DHT22;12351;52.284;9.160;2024-03-08T10:05:29;4.40;99.90
24207;DHT22;12351;52.284;9.160;2024-03-08T10:08:17;4.40;99.90
24207;DHT22;12351;52.284;9.160;2024-03-08T10:11:05;4.50;99.90
24207;DHT22;12351;52.284;9.160;2024-03-08T10:13:54;4.60;99.90
24207;DHT22;12351;52.284;9.160;2024-03-08T10:16:43;4.80;99.90
24207;DHT22;12351;52.284;9.160;2024-03-08T10:19:35;4.80;99.90
24207;DHT22;12351;52.284;9.160;2024-03-08T10:22:22;4.80;99.90
24207;DHT22;12351;52.284;9.160;2024-03-08T10:25:10;4.90;99.90
24207;DHT22;12351;52.284;9.160;2024-03-08T10:27:57;4.90;99.90
24207;DHT22;12351;52.284;9.160;2024-03-08T10:30:47;5.10;99.90
24207;DHT22;12351;52.284;9.160;2024-03-08T10:33:34;5.10;99.90
24207;DHT22;12351;52.284;9.160;2024-03-08T10:36:21;5.10;99.90
24207;DHT22;12351;52.284;9.160;2024-03-08T10:39:21;5.20;99.90
24207;DHT22;12351;52.284;9.160;2024-03-08T10:41:59;5.50;99.90
24207;DHT22;12351;52.284;9.160;2024-03-08T10:44:49;5.50;99.90
24207;DHT22;12351;52.284;9.160;2024-03-08T10:47:40;5.70;99.90
24207;DHT22;12351;52.284;9.160;2024-03-08T10:50:27;5.70;99.90
24207;DHT22;12351;52.284;9.160;2024-03-08T10:53:17;5.70;99.90
24207;DHT22;12351;52.284;9.160;2024-03-08T10:56:05;5.80;99.90
24207;DHT22;12351;52.284;9.160;2024-03-08T10:58:54;5.90;99.90
24207;DHT22;12351;52.284;9.160;2024-03-08T11:01:41;5.80;99.90
24207;DHT22;12351;52.284;9.160;2024-03-08T11:04:30;6.00;99.90
24207;DHT22;12351;52.284;9.160;2024-03-08T11:07:20;6.20;99.90
24207;DHT22;12351;52.284;9.160;2024-03-08T11:10:18;6.20;99.90
24207;DHT22;12351;52.284;9.160;2024-03-08T11:12:57;6.30;99.90
24207;DHT22;12351;52.284;9.160;2024-03-08T11:15:45;6.30;99.90
24207;DHT22;12351;52.284;9.160;2024-03-08T11:18:36;6.50;99.90
24207;DHT22;12351;52.284;9.160;2024-03-08T11:21:24;6.50;99.90
24207;DHT22;12351;52.284;9.160;2024-03-08T11:24:16;6.60;99.90
24207;DHT22;12351;52.284;9.160;2024-03-08T11:27:05;6.70;99.90
24207;DHT22;12351;52.284;9.160;2024-03-08T11:32:45;6.90;99.90
24207;DHT22;12351;52.284;9.160;2024-03-08T11:38:21;7.00;99.90
24207;DHT22;12351;52.284;9.160;2024-03-08T11:41:08;7.10;99.90
24207;DHT22;12351;52.284;9.160;2024-03-08T11:46:47;7.20;99.90
24207;DHT22;12351;52.284;9.160;2024-03-08T11:49:34;7.30;99.90
24207;DHT22;12351;52.284;9.160;2024-03-08T11:52:22;7.40;99.90
24207;DHT22;12351;52.284;9.160;2024-03-08T11:55:11;7.40;99.90
24207;DHT22;12351;52.284;9.160;2024-03-08T11:58:02;7.50;99.90
24207;DHT22;12351;52.284;9.160;2024-03-08T12:00:51;7.50;99.90
24207;DHT22;12351;52.284;9.160;2024-03-08T12:03:41;7.50;99.90
24207;DHT22;12351;52.284;9.160;2024-03-08T12:06:36;7.60;99.90
24207;DHT22;12351;52.284;9.160;2024-03-08T12:09:18;7.70;99.90
24207;DHT22;12351;52.284;9.160;2024-03-08T12:12:07;7.70;99.90
24207;DHT22;12351;52.284;9.160;2024-03-08T12:14:55;7.80;99.90
24207;DHT22;12351;52.284;9.160;2024-03-08T12:17:44;7.90;99.90
24207;DHT22;12351;52.284;9.160;2024-03-08T12:20:33;8.00;99.90
24207;DHT22;12351;52.284;9.160;2024-03-08T12:23:21;8.10;99.90
24207;DHT22;12351;52.284;9.160;2024-03-08T12:31:54;8.30;99.90
24207;DHT22;12351;52.284;9.160;2024-03-08T12:34:42;8.40;99.90
24207;DHT22;12351;52.284;9.160;2024-03-08T12:37:31;8.50;99.90
24207;DHT22;12351;52.284;9.160;2024-03-08T12:40:24;8.40;99.90
24207;DHT22;12351;52.284;9.160;2024-03-08T12:43:08;8.40;99.90
24207;DHT22;12351;52.284;9.160;2024-03-08T12:45:56;8.50;99.90
24207;DHT22;12351;52.284;9.160;2024-03-08T12:48:45;8.60;99.90
24207;DHT22;12351;52.284;9.160;2024-03-08T12:51:34;8.70;99.90
24207;DHT22;12351;52.284;9.160;2024-03-08T12:54:21;8.80;99.90
24207;DHT22;12351;52.284;9.160;2024-03-08T12:57:09;8.90;99.90
24207;DHT22;12351;52.284;9.160;2024-03-08T12:59:56;8.80;99.90
24207;DHT22;12351;52.284;9.160;2024-03-08T13:02:43;8.90;99.90
24207;DHT22;12351;52.284;9.160;2024-03-08T13:05:31;9.00;99.90
24207;DHT22;12351;52.284;9.160;2024-03-08T13:08:19;9.00;99.90
24207;DHT22;12351;52.284;9.160;2024-03-08T13:11:08;9.10;99.90
24207;DHT22;12351;52.284;9.160;2024-03-08T13:13:59;9.20;99.90
24207;DHT22;12351;52.284;9.160;2024-03-08T13:16:46;9.30;99.90
24207;DHT22;12351;52.284;9.160;2024-03-08T13:19:35;9.40;99.90
24207;DHT22;12351;52.284;9.160;2024-03-08T13:22:22;9.30;99.90
24207;DHT22;12351;52.284;9.160;2024-03-08T13:25:11;9.50;99.90
24207;DHT22;12351;52.284;9.160;2024-03-08T13:27:58;9.60;99.90
24207;DHT22;12351;52.284;9.160;2024-03-08T13:30:46;9.70;99.90
24207;DHT22;12351;52.284;9.160;2024-03-08T13:33:34;9.80;99.90
24207;DHT22;12351;52.284;9.160;2024-03-08T13:36:25;9.90;99.90
24207;DHT22;12351;52.284;9.160;2024-03-08T13:39:13;9.80;99.90
24207;DHT22;12351;52.284;9.160;2024-03-08T13:42:01;9.90;99.90
24207;DHT22;12351;52.284;9.160;2024-03-08T13:44:51;9.90;99.90
24207;DHT22;12351;52.284;9.160;2024-03-08T13:47:39;10.00;99.90
24207;DHT22;12351;52.284;9.160;2024-03-08T13:50:28;10.10;99.90
24207;DHT22;12351;52.284;9.160;2024-03-08T13:53:17;10.10;99.90
24207;DHT22;12351;52.284;9.160;2024-03-08T13:56:05;10.10;99.90
24207;DHT22;12351;52.284;9.160;2024-03-08T13:58:54;10.10;99.90
24207;DHT22;12351;52.284;9.160;2024-03-08T14:01:42;10.10;99.90
24207;DHT22;12351;52.284;9.160;2024-03-08T14:04:37;10.10;99.90
24207;DHT22;12351;52.284;9.160;2024-03-08T14:07:26;10.10;99.90
24207;DHT22;12351;52.284;9.160;2024-03-08T14:10:16;10.10;99.90
24207;DHT22;12351;52.284;9.160;2024-03-08T14:13:06;10.20;99.90
24207;DHT22;12351;52.284;9.160;2024-03-08T14:15:53;10.10;99.90
24207;DHT22;12351;52.284;9.160;2024-03-08T14:18:41;10.10;99.90
24207;DHT22;12351;52.284;9.160;2024-03-08T14:21:29;10.10;99.90
24207;DHT22;12351;52.284;9.160;2024-03-08T14:24:16;10.10;99.90
24207;DHT22;12351;52.284;9.160;2024-03-08T14:27:05;10.10;99.90
24207;DHT22;12351;52.284;9.160;2024-03-08T14:29:55;10.10;99.90
24207;DHT22;12351;52.284;9.160;2024-03-08T14:32:43;10.10;99.90
24207;DHT22;12351;52.284;9.160;2024-03-08T14:35:35;10.10;99.90
24207;DHT22;12351;52.284;9.160;2024-03-08T14:38:22;10.10;99.90
24207;DHT22;12351;52.284;9.160;2024-03-08T14:41:12;10.10;99.90
24207;DHT22;12351;52.284;9.160;2024-03-08T14:44:00;10.10;99.90
24207;DHT22;12351;52.284;9.160;2024-03-08T14:46:48;10.10;99.90
24207;DHT22;12351;52.284;9.160;2024-03-08T14:49:35;10.10;99.90
24207;DHT22;12351;52.284;9.160;2024-03-08T14:52:26;10.20;99.90
24207;DHT22;12351;52.284;9.160;2024-03-08T14:55:15;10.20;99.90
24207;DHT22;12351;52.284;9.160;2024-03-08T14:58:02;10.10;99.90
24207;DHT22;12351;52.284;9.160;2024-03-08T15:00:50;10.10;99.90
24207;DHT22;12351;52.284;9.160;2024-03-08T15:03:40;10.20;99.90
24207;DHT22;12351;52.284;9.160;2024-03-08T15:06:30;10.10;99.90
24207;DHT22;12351;52.284;9.160;2024-03-08T15:09:18;10.10;99.90
24207;DHT22;12351;52.284;9.160;2024-03-08T15:12:07;10.10;99.90
24207;DHT22;12351;52.284;9.160;2024-03-08T15:14:55;10.10;99.90
24207;DHT22;12351;52.284;9.160;2024-03-08T15:17:43;10.10;99.90
24207;DHT22;12351;52.284;9.160;2024-03-08T15:20:31;10.10;99.90
24207;DHT22;12351;52.284;9.160;2024-03-08T15:23:20;10.00;99.90
24207;DHT22;12351;52.284;9.160;2024-03-08T15:26:07;10.00;99.90
24207;DHT22;12351;52.284;9.160;2024-03-08T15:28:56;10.00;99.90
24207;DHT22;12351;52.284;9.160;2024-03-08T15:31:43;10.00;99.90
24207;DHT22;12351;52.284;9.160;2024-03-08T15:34:31;9.90;99.90
24207;DHT22;12351;52.284;9.160;2024-03-08T15:37:20;9.90;99.90
24207;DHT22;12351;52.284;9.160;2024-03-08T15:40:08;9.80;99.90
24207;DHT22;12351;52.284;9.160;2024-03-08T15:42:57;9.80;99.90
24207;DHT22;12351;52.284;9.160;2024-03-08T15:45:46;9.80;99.90
24207;DHT22;12351;52.284;9.160;2024-03-08T15:48:33;9.80;99.90
24207;DHT22;12351;52.284;9.160;2024-03-08T15:51:22;9.70;99.90
24207;DHT22;12351;52.284;9.160;2024-03-08T15:54:09;9.70;99.90
24207;DHT22;12351;52.284;9.160;2024-03-08T15:56:58;9.60;99.90
24207;DHT22;12351;52.284;9.160;2024-03-08T15:59:45;9.60;99.90
24207;DHT22;12351;52.284;9.160;2024-03-08T16:02:33;9.60;99.90
24207;DHT22;12351;52.284;9.160;2024-03-08T16:05:21;9.50;99.90
24207;DHT22;12351;52.284;9.160;2024-03-08T16:08:08;9.50;99.90
24207;DHT22;12351;52.284;9.160;2024-03-08T16:10:57;9.50;99.90
24207;DHT22;12351;52.284;9.160;2024-03-08T16:13:45;9.40;99.90
24207;DHT22;12351;52.284;9.160;2024-03-08T16:16:33;9.40;99.90
24207;DHT22;12351;52.284;9.160;2024-03-08T16:19:20;9.40;99.90
24207;DHT22;12351;52.284;9.160;2024-03-08T16:22:08;9.30;99.90
24207;DHT22;12351;52.284;9.160;2024-03-08T16:24:57;9.30;99.90
24207;DHT22;12351;52.284;9.160;2024-03-08T16:27:44;9.20;99.90
24207;DHT22;12351;52.284;9.160;2024-03-08T16:30:33;9.20;99.90
24207;DHT22;12351;52.284;9.160;2024-03-08T16:33:21;9.10;99.90
24207;DHT22;12351;52.284;9.160;2024-03-08T16:36:13;9.10;99.90
24207;DHT22;12351;52.284;9.160;2024-03-08T16:39:01;9.00;99.90
24207;DHT22;12351;52.284;9.160;2024-03-08T16:41:49;9.00;99.90
24207;DHT22;12351;52.284;9.160;2024-03-08T16:44:39;8.90;99.90
24207;DHT22;12351;52.284;9.160;2024-03-08T16:47:26;8.80;99.90
24207;DHT22;12351;52.284;9.160;2024-03-08T16:50:17;8.80;99.90
24207;DHT22;12351;52.284;9.160;2024-03-08T16:53:04;8.80;99.90
24207;DHT22;12351;52.284;9.160;2024-03-08T16:55:51;8.70;99.90
24207;DHT22;12351;52.284;9.160;2024-03-08T16:58:39;8.60;99.90
24207;DHT22;12351;52.284;9.160;2024-03-08T17:01:28;8.60;99.90
24207;DHT22;12351;52.284;9.160;2024-03-08T17:04:15;8.60;99.90
24207;DHT22;12351;52.284;9.160;2024-03-08T17:07:04;8.50;99.90
24207;DHT22;12351;52.284;9.160;2024-03-08T17:09:52;8.50;99.90
24207;DHT22;12351;52.284;9.160;2024-03-08T17:12:40;8.40;99.90
24207;DHT22;12351;52.284;9.160;2024-03-08T17:15:29;8.40;99.90
24207;DHT22;12351;52.284;9.160;2024-03-08T17:18:17;8.30;99.90
24207;DHT22;12351;52.284;9.160;2024-03-08T17:21:06;8.30;99.90
24207;DHT22;12351;52.284;9.160;2024-03-08T17:23:55;8.30;99.90
24207;DHT22;12351;52.284;9.160;2024-03-08T17:26:42;8.20;99.90
24207;DHT22;12351;52.284;9.160;2024-03-08T17:29:30;8.20;99.90
24207;DHT22;12351;52.284;9.160;2024-03-08T17:32:18;8.10;99.90
24207;DHT22;12351;52.284;9.160;2024-03-08T17:35:05;8.10;99.90
24207;DHT22;12351;52.284;9.160;2024-03-08T17:37:56;8.10;99.90
24207;DHT22;12351;52.284;9.160;2024-03-08T17:40:43;8.00;99.90
24207;DHT22;12351;52.284;9.160;2024-03-08T17:43:31;8.00;99.90
24207;DHT22;12351;52.284;9.160;2024-03-08T17:46:18;7.90;99.90
24207;DHT22;12351;52.284;9.160;2024-03-08T17:49:05;7.90;99.90
24207;DHT22;12351;52.284;9.160;2024-03-08T17:51:53;7.80;99.90
24207;DHT22;12351;52.284;9.160;2024-03-08T17:54:41;7.80;99.90
24207;DHT22;12351;52.284;9.160;2024-03-08T17:57:28;7.80;99.90
24207;DHT22;12351;52.284;9.160;2024-03-08T18:00:19;7.70;99.90
24207;DHT22;12351;52.284;9.160;2024-03-08T18:03:08;7.70;99.90
24207;DHT22;12351;52.284;9.160;2024-03-08T18:05:57;7.70;99.90
24207;DHT22;12351;52.284;9.160;2024-03-08T18:08:44;7.60;99.90
24207;DHT22;12351;52.284;9.160;2024-03-08T18:11:32;7.60;99.90
24207;DHT22;12351;52.284;9.160;2024-03-08T18:14:21;7.50;99.90